createdAt,value
2022-11-29T00:01:01.374Z,97.43
2022-11-29T00:04:03.180Z,107.00
2022-11-29T00:07:04.624Z,89.95
2022-11-29T00:10:06.787Z,88.07
2022-11-29T00:13:08.251Z,85.32
2022-11-29T00:16:11.342Z,108.78
2022-11-29T00:19:13.604Z,95.22
2022-11-29T00:22:15.045Z,98.88
2022-11-29T00:25:16.629Z,102.90
2022-11-29T00:28:18.200Z,101.70
2022-11-29T00:31:37.574Z,78.85
2022-11-29T00:34:39.028Z,88.50
2022-11-29T00:37:40.431Z,105.35
2022-11-29T00:40:41.941Z,86.50
2022-11-29T00:43:44.107Z,73.22
2022-11-29T00:46:45.604Z,89.55
2022-11-29T00:49:47.072Z,100.18
2022-11-29T00:52:48.731Z,112.57
2022-11-29T00:55:53.812Z,80.50
2022-11-29T00:58:55.369Z,151.18
2022-11-29T01:01:57.044Z,110.07
2022-11-29T01:04:58.580Z,96.93
2022-11-29T01:08:00.263Z,131.10
2022-11-29T01:11:07.394Z,233.07
2022-11-29T01:14:10.428Z,91.10
2022-11-29T01:17:11.895Z,78.25
2022-11-29T01:20:13.760Z,140.23
2022-11-29T01:23:15.193Z,69.65
2022-11-29T01:26:23.617Z,84.78
2022-11-29T01:29:25.109Z,107.70
2022-11-29T01:32:26.817Z,84.20
2022-11-29T01:35:28.289Z,304.48
2022-11-29T01:38:29.755Z,177.00
2022-11-29T01:41:33.422Z,98.65
2022-11-29T01:44:34.848Z,111.30
2022-11-29T01:47:41.300Z,88.78
2022-11-29T01:50:43.045Z,81.72
2022-11-29T01:53:44.598Z,86.68
2022-11-29T01:56:48.819Z,75.25
2022-11-29T02:03:20.247Z,74.68
2022-11-29T02:06:22.539Z,71.20
2022-11-29T02:09:24.018Z,59.35
2022-11-29T02:12:43.709Z,69.03
2022-11-29T02:16:07.166Z,123.45
2022-11-29T02:19:45.181Z,85.85
2022-11-29T02:23:23.219Z,107.35
2022-11-29T02:26:54.977Z,71.32
2022-11-29T02:30:34.989Z,71.90
2022-11-29T02:34:02.888Z,75.78
2022-11-29T02:37:23.186Z,81.20
2022-11-29T02:40:55.156Z,75.80
2022-11-29T02:44:21.504Z,74.15
2022-11-29T02:47:48.747Z,105.90
2022-11-29T02:51:06.742Z,163.30
2022-11-29T02:54:14.178Z,97.57
2022-11-29T02:57:25.658Z,223.65
2022-11-29T03:00:28.196Z,69.18
2022-11-29T03:03:38.843Z,90.35
2022-11-29T03:07:05.775Z,123.07
2022-11-29T03:10:28.876Z,285.98
2022-11-29T03:13:51.390Z,218.60
2022-11-29T03:17:02.858Z,175.57
2022-11-29T03:20:37.448Z,186.02
2022-11-29T03:23:45.624Z,166.27
2022-11-29T03:26:57.514Z,225.88
2022-11-29T03:30:01.614Z,112.72
2022-11-29T03:33:16.936Z,88.22
2022-11-29T03:36:45.865Z,75.40
2022-11-29T03:40:01.744Z,126.03
2022-11-29T03:43:11.136Z,89.68
2022-11-29T03:46:18.614Z,154.38
2022-11-29T03:50:09.596Z,134.57
2022-11-29T03:53:23.635Z,77.30
2022-11-29T03:56:34.754Z,163.60
2022-11-29T03:59:59.195Z,119.93
2022-11-29T04:03:12.787Z,75.15
2022-11-29T04:06:30.399Z,108.87
2022-11-29T04:09:51.052Z,87.03
2022-11-29T04:13:35.996Z,84.10
2022-11-29T04:17:18.714Z,67.28
2022-11-29T04:20:44.201Z,86.30
2022-11-29T04:24:27.155Z,72.18
2022-11-29T04:27:34.663Z,145.68
2022-11-29T04:30:55.956Z,113.70
2022-11-29T04:34:12.425Z,77.82
2022-11-29T04:37:19.893Z,82.82
2022-11-29T04:40:40.327Z,77.22
2022-11-29T04:44:02.167Z,110.13
2022-11-29T04:47:25.724Z,76.22
2022-11-29T04:50:36.063Z,71.53
2022-11-29T04:53:37.464Z,110.78
2022-11-29T04:56:54.075Z,140.82
2022-11-29T05:00:19.322Z,87.13
2022-11-29T05:03:52.546Z,76.90
2022-11-29T05:07:07.504Z,74.25
2022-11-29T05:10:37.115Z,62.17
2022-11-29T05:13:56.882Z,91.20
2022-11-29T05:17:10.373Z,67.47
2022-11-29T05:20:38.488Z,82.47
2022-11-29T05:23:55.106Z,96.00
2022-11-29T05:27:18.281Z,105.18
2022-11-29T05:30:25.297Z,174.85
2022-11-29T05:33:45.059Z,117.28
2022-11-29T05:37:01.190Z,82.55
2022-11-29T05:40:21.536Z,86.03
2022-11-29T05:43:41.045Z,83.45
2022-11-29T05:46:55.158Z,111.82
2022-11-29T05:50:20.981Z,96.55
2022-11-29T05:53:44.055Z,67.60
2022-11-29T05:57:06.824Z,137.13
2022-11-29T06:00:11.486Z,72.70
2022-11-29T06:03:24.611Z,132.57
2022-11-29T06:06:30.219Z,92.28
2022-11-29T06:09:45.588Z,96.35
2022-11-29T06:13:23.219Z,84.72
2022-11-29T06:17:02.162Z,253.82
2022-11-29T06:20:26.369Z,221.75
2022-11-29T06:23:43.051Z,203.85
2022-11-29T06:27:14.094Z,117.05
2022-11-29T06:30:22.381Z,97.28
2022-11-29T06:33:31.266Z,178.75
2022-11-29T06:36:54.068Z,138.15
2022-11-29T06:39:55.789Z,98.88
2022-11-29T06:42:57.211Z,106.60
2022-11-29T06:46:05.839Z,172.13
2022-11-29T06:49:29.349Z,349.00
2022-11-29T06:52:50.999Z,104.18
2022-11-29T06:55:55.511Z,80.80
2022-11-29T06:59:14.296Z,77.10
2022-11-29T07:02:38.070Z,68.75
2022-11-29T07:05:40.137Z,147.82
2022-11-29T07:08:42.771Z,112.38
2022-11-29T07:11:45.826Z,62.33
2022-11-29T07:14:47.914Z,84.00
2022-11-29T07:18:14.414Z,118.72
2022-11-29T07:21:31.663Z,60.47
2022-11-29T07:24:47.096Z,63.40
2022-11-29T07:27:54.210Z,84.72
2022-11-29T07:31:05.105Z,76.50
2022-11-29T07:34:21.632Z,49.35
2022-11-29T07:37:50.090Z,35.25
2022-11-29T07:41:18.044Z,49.58
2022-11-29T07:44:35.168Z,67.03
2022-11-29T07:47:36.632Z,69.57
2022-11-29T07:50:39.155Z,77.45
2022-11-29T07:53:43.096Z,53.17
2022-11-29T07:56:44.550Z,156.10
2022-11-29T07:59:46.135Z,101.03
2022-11-29T08:02:49.084Z,86.28
2022-11-29T08:05:50.491Z,181.23
2022-11-29T08:08:51.952Z,113.75
2022-11-29T08:11:53.419Z,144.00
2022-11-29T08:14:54.932Z,79.50
2022-11-29T08:17:56.442Z,141.43
2022-11-29T08:20:57.952Z,90.85
2022-11-29T08:23:59.372Z,114.90
2022-11-29T08:27:00.865Z,52.95
2022-11-29T08:30:02.891Z,53.22
2022-11-29T08:33:04.402Z,76.47
2022-11-29T08:36:09.892Z,121.60
2022-11-29T08:39:11.455Z,143.13
2022-11-29T08:42:12.911Z,51.40
2022-11-29T08:45:14.319Z,191.43
2022-11-29T08:48:15.782Z,167.70
2022-11-29T08:51:17.242Z,79.60
2022-11-29T08:54:18.731Z,55.72
2022-11-29T09:00:44.122Z,40.13
2022-11-29T09:03:46.822Z,49.30
2022-11-29T09:06:48.224Z,96.80
2022-11-29T09:09:49.647Z,50.20
2022-11-29T09:12:51.083Z,84.03
2022-11-29T09:15:52.599Z,37.83
2022-11-29T09:18:54.491Z,61.60
2022-11-29T09:21:55.962Z,70.68
2022-11-29T09:24:57.407Z,52.53
2022-11-29T09:27:59.412Z,37.83
2022-11-29T09:31:05.739Z,53.20
2022-11-29T09:34:07.296Z,59.20
2022-11-29T09:37:08.765Z,89.53
2022-11-29T09:40:23.295Z,53.47
2022-11-29T09:46:58.736Z,55.92
2022-11-29T09:50:19.178Z,73.10
2022-11-29T09:53:35.811Z,48.83
2022-11-29T09:56:45.804Z,45.88
2022-11-29T09:59:52.425Z,40.88
2022-11-29T10:03:00.974Z,87.28
2022-11-29T10:06:11.590Z,53.83
2022-11-29T10:09:30.853Z,55.60
2022-11-29T10:12:40.946Z,66.43
2022-11-29T10:15:45.586Z,49.85
2022-11-29T10:18:58.613Z,210.20
2022-11-29T10:22:27.775Z,105.90
2022-11-29T10:25:37.459Z,264.70
2022-11-29T10:28:42.655Z,177.95
2022-11-29T10:31:46.324Z,227.88
2022-11-29T10:34:49.468Z,187.88
2022-11-29T10:38:22.669Z,49.65
2022-11-29T10:41:21.935Z,140.75
2022-11-29T10:44:24.361Z,112.43
2022-11-29T10:47:26.116Z,41.42
2022-11-29T10:50:30.935Z,188.68
2022-11-29T10:53:37.192Z,61.25
2022-11-29T10:56:39.242Z,105.18
2022-11-29T10:59:41.137Z,72.22
2022-11-29T11:02:42.655Z,17.25
2022-11-29T11:05:59.336Z,60.00
2022-11-29T11:09:30.125Z,108.38
2022-11-29T11:12:35.323Z,91.95
2022-11-29T11:15:37.189Z,80.47
2022-11-29T11:18:38.697Z,64.63
2022-11-29T11:21:40.188Z,24.08
2022-11-29T11:24:44.084Z,51.55
2022-11-29T11:27:46.282Z,54.90
2022-11-29T11:31:03.075Z,129.20
2022-11-29T11:34:24.712Z,34.83
2022-11-29T11:37:33.384Z,39.72
2022-11-29T11:40:34.888Z,35.30
2022-11-29T11:43:37.990Z,26.08
2022-11-29T11:46:48.228Z,37.72
2022-11-29T11:49:55.897Z,33.95
2022-11-29T11:53:05.000Z,38.47
2022-11-29T11:56:10.254Z,53.15
2022-11-29T11:59:23.807Z,69.75
2022-11-29T12:02:40.420Z,39.47
2022-11-29T12:05:44.922Z,37.38
2022-11-29T12:08:49.205Z,26.20
2022-11-29T12:12:02.783Z,32.28
2022-11-29T12:15:08.483Z,26.73
2022-11-29T12:18:14.484Z,33.30
2022-11-29T12:21:21.319Z,27.63
2022-11-29T12:24:38.938Z,28.13
2022-11-29T12:27:40.412Z,33.45
2022-11-29T12:30:50.417Z,31.45
2022-11-29T12:34:22.169Z,32.53
2022-11-29T12:37:48.353Z,42.92
2022-11-29T12:41:19.783Z,25.15
2022-11-29T12:44:46.035Z,34.42
2022-11-29T12:48:10.684Z,35.75
2022-11-29T12:52:09.399Z,51.83
2022-11-29T12:55:33.941Z,31.33
2022-11-29T12:59:11.125Z,51.08
2022-11-29T13:02:21.621Z,106.15
2022-11-29T13:06:11.951Z,55.05
2022-11-29T13:09:46.924Z,42.95
2022-11-29T13:12:53.744Z,32.75
2022-11-29T13:16:07.922Z,50.42
2022-11-29T13:19:18.343Z,38.95
2022-11-29T13:22:39.086Z,48.50
2022-11-29T13:25:43.960Z,37.58
2022-11-29T13:28:45.846Z,38.00
2022-11-29T13:31:47.979Z,32.38
2022-11-29T13:34:51.794Z,36.55
2022-11-29T13:38:00.988Z,51.63
2022-11-29T13:41:16.430Z,49.42
2022-11-29T13:44:45.792Z,37.80
2022-11-29T13:47:52.265Z,59.03
2022-11-29T13:50:54.789Z,37.40
2022-11-29T13:53:59.461Z,44.75
2022-11-29T13:57:07.586Z,58.85
2022-11-29T14:00:27.864Z,42.15
2022-11-29T14:03:33.355Z,41.88
2022-11-29T14:06:37.156Z,37.38
2022-11-29T14:09:48.338Z,78.35
2022-11-29T14:12:55.850Z,125.93
2022-11-29T14:16:01.672Z,69.82
2022-11-29T14:19:09.486Z,95.95
2022-11-29T14:22:19.242Z,58.63
2022-11-29T14:25:50.584Z,43.55
2022-11-29T14:28:47.148Z,72.32
2022-11-29T14:31:51.280Z,65.68
2022-11-29T14:35:19.979Z,53.92
2022-11-29T14:38:31.278Z,57.80
2022-11-29T14:41:51.155Z,53.85
2022-11-29T14:44:55.348Z,85.47
2022-11-29T14:51:32.291Z,49.63
2022-11-29T14:57:47.540Z,110.53
2022-11-29T15:00:48.947Z,41.97
2022-11-29T15:03:50.671Z,52.08
2022-11-29T15:06:55.820Z,67.90
2022-11-29T15:10:04.002Z,52.13
2022-11-29T15:13:09.992Z,60.95
2022-11-29T15:16:56.333Z,71.22
2022-11-29T15:20:15.069Z,62.47
2022-11-29T15:23:18.483Z,107.85
2022-11-29T15:26:20.924Z,94.57
2022-11-29T15:29:22.856Z,56.72
2022-11-29T15:32:27.763Z,92.57
2022-11-29T15:35:29.981Z,145.27
2022-11-29T15:38:44.931Z,120.20
2022-11-29T15:41:46.356Z,123.57
2022-11-29T15:44:48.444Z,69.05
2022-11-29T15:47:50.235Z,44.20
2022-11-29T15:51:07.075Z,102.82
2022-11-29T15:54:13.602Z,146.27
2022-11-29T15:57:25.152Z,52.45
2022-11-29T16:00:27.044Z,61.15
2022-11-29T16:03:32.538Z,61.85
2022-11-29T16:06:41.064Z,106.78
2022-11-29T16:09:47.139Z,90.53
2022-11-29T16:12:50.781Z,61.40
2022-11-29T16:16:09.029Z,88.15
2022-11-29T16:19:21.408Z,76.95
2022-11-29T16:22:23.773Z,79.10
2022-11-29T16:25:25.367Z,120.30
2022-11-29T16:28:32.716Z,210.55
2022-11-29T16:31:38.224Z,70.80
2022-11-29T16:34:43.305Z,78.82
2022-11-29T16:37:46.340Z,64.38
2022-11-29T16:41:04.928Z,67.25
2022-11-29T16:44:41.713Z,82.75
2022-11-29T16:47:51.866Z,68.07
2022-11-29T16:51:12.496Z,98.30
2022-11-29T16:54:22.774Z,86.85
2022-11-29T17:04:23.934Z,60.47
2022-11-29T17:07:29.862Z,58.63
2022-11-29T17:10:31.330Z,78.03
2022-11-29T17:13:33.757Z,59.75
2022-11-29T17:16:35.251Z,76.45
2022-11-29T17:19:36.810Z,80.28
2022-11-29T17:22:38.341Z,83.95
2022-11-29T17:25:39.770Z,74.13
2022-11-29T17:28:42.448Z,70.43
2022-11-29T17:31:46.000Z,81.35
2022-11-29T17:34:48.271Z,74.55
2022-11-29T17:37:49.845Z,81.35
2022-11-29T17:40:51.352Z,91.00
2022-11-29T17:43:55.326Z,88.20
2022-11-29T17:46:56.763Z,92.05
2022-11-29T17:49:58.284Z,93.50
2022-11-29T17:52:59.706Z,91.90
2022-11-29T17:56:03.508Z,86.55
2022-11-29T17:59:05.355Z,128.45
2022-11-29T18:02:06.959Z,198.75
2022-11-29T18:05:08.789Z,274.15
2022-11-29T18:08:10.260Z,192.77
2022-11-29T18:11:12.868Z,182.52
2022-11-29T18:14:16.497Z,148.93
2022-11-29T18:17:17.938Z,173.57
2022-11-29T18:20:19.377Z,153.50
2022-11-29T18:23:20.825Z,140.95
2022-11-29T18:26:24.667Z,117.38
2022-11-29T18:29:26.169Z,108.95
2022-11-29T18:37:27.554Z,100.05
2022-11-29T18:40:42.246Z,93.97
2022-11-29T18:43:44.291Z,78.40
2022-11-29T18:46:46.464Z,84.03
2022-11-29T18:49:47.902Z,94.18
2022-11-29T18:52:49.402Z,80.72
2022-11-29T18:55:59.971Z,100.85
2022-11-29T18:59:13.251Z,79.38
2022-11-29T19:02:14.703Z,71.28
2022-11-29T19:05:16.138Z,71.53
2022-11-29T19:08:17.619Z,77.25
2022-11-29T19:11:24.107Z,76.93
2022-11-29T19:14:25.589Z,97.30
2022-11-29T19:17:27.040Z,104.72
2022-11-29T19:20:28.519Z,101.85
2022-11-29T19:23:30.029Z,92.38
2022-11-29T19:26:32.651Z,91.25
2022-11-29T19:29:39.473Z,81.38
2022-11-29T19:32:41.387Z,96.05
2022-11-29T19:35:42.845Z,89.13
2022-11-29T19:38:48.854Z,109.45
2022-11-29T19:41:54.510Z,157.15
2022-11-29T19:45:15.829Z,174.00
2022-11-29T19:48:17.483Z,105.40
2022-11-29T19:51:19.985Z,119.57
2022-11-29T19:54:21.431Z,133.40
2022-11-29T19:57:22.948Z,355.98
2022-11-29T20:00:24.438Z,360.45
2022-11-29T20:03:25.906Z,298.42
2022-11-29T20:06:28.997Z,277.83
2022-11-29T20:09:30.469Z,263.65
2022-11-29T20:12:31.954Z,244.68
2022-11-29T20:15:33.391Z,165.57
2022-11-29T20:18:37.222Z,134.30
2022-11-29T20:21:44.721Z,118.60
2022-11-29T20:24:46.241Z,120.15
2022-11-29T20:27:47.643Z,121.28
2022-11-29T20:30:49.283Z,116.70
2022-11-29T20:33:53.055Z,114.00
2022-11-29T20:37:03.192Z,104.50
2022-11-29T20:40:19.222Z,114.22
2022-11-29T20:43:29.196Z,113.38
2022-11-29T20:46:31.116Z,109.47
2022-11-29T20:49:32.792Z,105.45
2022-11-29T20:53:01.696Z,108.07
2022-11-29T20:56:05.186Z,109.47
2022-11-29T20:59:06.639Z,101.43
2022-11-29T21:02:08.071Z,96.65
2022-11-29T21:05:10.044Z,109.60
2022-11-29T21:08:12.483Z,104.20
2022-11-29T21:11:14.376Z,107.93
2022-11-29T21:14:16.147Z,102.15
2022-11-29T21:17:17.988Z,96.00
2022-11-29T21:20:25.366Z,101.30
2022-11-29T21:24:00.523Z,95.28
2022-11-29T21:27:03.178Z,111.78
2022-11-29T21:30:13.430Z,99.88
2022-11-29T21:33:15.077Z,97.53
2022-11-29T21:36:16.763Z,108.63
2022-11-29T21:39:18.267Z,128.48
2022-11-29T21:42:21.752Z,121.10
2022-11-29T21:45:23.259Z,93.57
2022-11-29T21:48:24.720Z,98.63
2022-11-29T21:51:26.170Z,92.70
2022-11-29T21:54:28.759Z,94.28
2022-11-29T21:57:30.227Z,107.85
2022-11-29T22:00:37.178Z,81.65
2022-11-29T22:03:40.090Z,93.68
2022-11-29T22:06:41.529Z,91.47
2022-11-29T22:09:43.073Z,87.63
2022-11-29T22:12:51.890Z,126.30
2022-11-29T22:15:54.259Z,296.33
2022-11-29T22:18:55.822Z,211.90
2022-11-29T22:22:01.167Z,185.77
2022-11-29T22:28:04.061Z,96.82
2022-11-29T22:31:10.984Z,83.82
2022-11-29T22:34:13.359Z,97.70
2022-11-29T22:37:14.867Z,84.03
2022-11-29T22:40:16.304Z,95.45
2022-11-29T22:43:17.722Z,85.53
2022-11-29T22:46:22.443Z,78.03
2022-11-29T22:49:23.954Z,62.22
2022-11-29T22:52:27.231Z,63.35
2022-11-29T22:55:28.692Z,70.10
2022-11-29T22:58:30.566Z,70.45
2022-11-29T23:01:34.095Z,65.28
2022-11-29T23:04:35.520Z,65.40
2022-11-29T23:07:36.942Z,67.82
2022-11-29T23:10:38.416Z,67.68
2022-11-29T23:13:41.967Z,62.03
2022-11-29T23:16:44.738Z,59.33
2022-11-29T23:19:46.269Z,64.03
2022-11-29T23:22:47.695Z,53.05
2022-11-29T23:25:50.038Z,61.25
2022-11-29T23:28:51.481Z,74.63
2022-11-29T23:31:52.932Z,85.03
2022-11-29T23:34:54.394Z,78.10
2022-11-29T23:37:55.837Z,70.38
2022-11-29T23:40:57.237Z,73.28
2022-11-29T23:43:58.687Z,70.05
2022-11-29T23:47:00.146Z,71.50
2022-11-29T23:50:01.609Z,73.38
2022-11-29T23:53:03.046Z,73.85
2022-11-29T23:56:11.665Z,69.70
2022-11-29T23:59:13.137Z,55.55
